sensor_id;sensor_type;location;lat;lon;timestamp;temperature;humidity
11559;DHT22;5835;42.930;25.178;2023-06-19T00:00:33;17.50;99.90
11559;DHT22;5835;42.930;25.178;2023-06-19T00:03:00;17.40;99.90
11559;DHT22;5835;42.930;25.178;2023-06-19T00:05:28;17.30;99.90
11559;DHT22;5835;42.930;25.178;2023-06-19T00:07:56;17.30;99.90
11559;DHT22;5835;42.930;25.178;2023-06-19T00:10:25;17.30;99.90
11559;DHT22;5835;42.930;25.178;2023-06-19T00:12:52;17.30;99.90
11559;DHT22;5835;42.930;25.178;2023-06-19T00:15:20;17.20;99.90
11559;DHT22;5835;42.930;25.178;2023-06-19T00:17:47;17.30;99.90
11559;DHT22;5835;42.930;25.178;2023-06-19T00:20:15;17.20;99.90
11559;DHT22;5835;42.930;25.178;2023-06-19T00:22:43;17.30;99.90
11559;DHT22;5835;42.930;25.178;2023-06-19T00:25:16;17.40;99.90
11559;DHT22;5835;42.930;25.178;2023-06-19T00:27:45;17.50;99.90
11559;DHT22;5835;42.930;25.178;2023-06-19T00:30:13;17.50;99.90
11559;DHT22;5835;42.930;25.178;2023-06-19T00:32:40;17.60;99.90
11559;DHT22;5835;42.930;25.178;2023-06-19T00:35:14;17.70;99.90
11559;DHT22;5835;42.930;25.178;2023-06-19T00:37:42;17.70;99.90
11559;DHT22;5835;42.930;25.178;2023-06-19T00:40:18;17.70;99.90
11559;DHT22;5835;42.930;25.178;2023-06-19T00:42:48;17.60;99.90
11559;DHT22;5835;42.930;25.178;2023-06-19T00:45:15;17.90;99.90
11559;DHT22;5835;42.930;25.178;2023-06-19T00:47:43;18.00;99.90
11559;DHT22;5835;42.930;25.178;2023-06-19T00:50:12;17.70;99.90
11559;DHT22;5835;42.930;25.178;2023-06-19T00:52:40;17.60;99.90
11559;DHT22;5835;42.930;25.178;2023-06-19T00:55:08;17.50;99.90
11559;DHT22;5835;42.930;25.178;2023-06-19T00:57:35;17.50;99.90
11559;DHT22;5835;42.930;25.178;2023-06-19T01:00:09;17.60;99.90
11559;DHT22;5835;42.930;25.178;2023-06-19T01:02:37;17.60;99.90
11559;DHT22;5835;42.930;25.178;2023-06-19T01:05:05;17.50;99.90
11559;DHT22;5835;42.930;25.178;2023-06-19T01:07:40;17.30;99.90
11559;DHT22;5835;42.930;25.178;2023-06-19T01:10:12;17.30;99.90
11559;DHT22;5835;42.930;25.178;2023-06-19T01:12:44;17.20;99.90
11559;DHT22;5835;42.930;25.178;2023-06-19T01:15:18;17.40;99.90
11559;DHT22;5835;42.930;25.178;2023-06-19T01:17:48;17.20;99.90
11559;DHT22;5835;42.930;25.178;2023-06-19T01:20:16;17.20;99.90
11559;DHT22;5835;42.930;25.178;2023-06-19T01:22:46;17.30;99.90
11559;DHT22;5835;42.930;25.178;2023-06-19T01:25:15;17.30;99.90
11559;DHT22;5835;42.930;25.178;2023-06-19T01:27:43;17.40;99.90
11559;DHT22;5835;42.930;25.178;2023-06-19T01:30:12;17.50;99.90
11559;DHT22;5835;42.930;25.178;2023-06-19T01:32:47;17.70;99.90
11559;DHT22;5835;42.930;25.178;2023-06-19T01:35:19;17.70;99.90
11559;DHT22;5835;42.930;25.178;2023-06-19T01:37:50;17.70;99.90
11559;DHT22;5835;42.930;25.178;2023-06-19T01:40:20;17.50;99.90
11559;DHT22;5835;42.930;25.178;2023-06-19T01:42:51;17.60;99.90
11559;DHT22;5835;42.930;25.178;2023-06-19T01:45:19;17.50;99.90
11559;DHT22;5835;42.930;25.178;2023-06-19T01:47:47;17.50;99.90
11559;DHT22;5835;42.930;25.178;2023-06-19T01:50:15;17.60;99.90
11559;DHT22;5835;42.930;25.178;2023-06-19T01:52:42;17.40;99.90
11559;DHT22;5835;42.930;25.178;2023-06-19T01:55:11;17.50;99.90
11559;DHT22;5835;42.930;25.178;2023-06-19T01:57:39;17.60;99.90
11559;DHT22;5835;42.930;25.178;2023-06-19T02:00:12;17.50;99.90
11559;DHT22;5835;42.930;25.178;2023-06-19T02:02:40;17.40;99.90
11559;DHT22;5835;42.930;25.178;2023-06-19T02:05:08;17.30;99.90
11559;DHT22;5835;42.930;25.178;2023-06-19T02:07:35;17.30;99.90
11559;DHT22;5835;42.930;25.178;2023-06-19T02:10:04;17.40;99.90
11559;DHT22;5835;42.930;25.178;2023-06-19T02:12:33;17.30;99.90
11559;DHT22;5835;42.930;25.178;2023-06-19T02:15:01;17.30;99.90
11559;DHT22;5835;42.930;25.178;2023-06-19T02:17:28;17.50;99.90
11559;DHT22;5835;42.930;25.178;2023-06-19T02:19:56;17.50;99.90
11559;DHT22;5835;42.930;25.178;2023-06-19T02:22:23;17.30;99.90
11559;DHT22;5835;42.930;25.178;2023-06-19T02:24:51;17.30;99.90
11559;DHT22;5835;42.930;25.178;2023-06-19T02:27:19;17.40;99.90
11559;DHT22;5835;42.930;25.178;2023-06-19T02:29:48;17.40;99.90
11559;DHT22;5835;42.930;25.178;2023-06-19T02:32:16;17.30;99.90
11559;DHT22;5835;42.930;25.178;2023-06-19T02:34:44;17.30;99.90
11559;DHT22;5835;42.930;25.178;2023-06-19T02:37:11;17.40;99.90
11559;DHT22;5835;42.930;25.178;2023-06-19T02:39:39;17.30;99.90
11559;DHT22;5835;42.930;25.178;2023-06-19T02:42:07;17.30;99.90
11559;DHT22;5835;42.930;25.178;2023-06-19T02:44:35;17.40;99.90
11559;DHT22;5835;42.930;25.178;2023-06-19T02:47:04;17.40;99.90
11559;DHT22;5835;42.930;25.178;2023-06-19T02:49:32;17.50;99.90
11559;DHT22;5835;42.930;25.178;2023-06-19T02:52:00;17.50;99.90
11559;DHT22;5835;42.930;25.178;2023-06-19T02:54:27;17.50;99.90
11559;DHT22;5835;42.930;25.178;2023-06-19T02:56:55;17.50;99.90
11559;DHT22;5835;42.930;25.178;2023-06-19T02:59:22;17.60;99.90
11559;DHT22;5835;42.930;25.178;2023-06-19T03:01:50;17.50;99.90
11559;DHT22;5835;42.930;25.178;2023-06-19T03:04:19;17.60;99.90
11559;DHT22;5835;42.930;25.178;2023-06-19T03:06:47;17.50;99.90
11559;DHT22;5835;42.930;25.178;2023-06-19T03:09:15;17.50;99.90
11559;DHT22;5835;42.930;25.178;2023-06-19T03:11:43;17.60;99.90
11559;DHT22;5835;42.930;25.178;2023-06-19T03:14:10;17.50;99.90
11559;DHT22;5835;42.930;25.178;2023-06-19T03:16:37;17.60;99.90
11559;DHT22;5835;42.930;25.178;2023-06-19T03:19:05;17.40;99.90
11559;DHT22;5835;42.930;25.178;2023-06-19T03:21:34;17.50;99.90
11559;DHT22;5835;42.930;25.178;2023-06-19T03:24:02;17.50;99.90
11559;DHT22;5835;42.930;25.178;2023-06-19T03:26:30;17.50;99.90
11559;DHT22;5835;42.930;25.178;2023-06-19T03:28:58;17.50;99.90
11559;DHT22;5835;42.930;25.178;2023-06-19T03:31:26;17.60;99.90
11559;DHT22;5835;42.930;25.178;2023-06-19T03:33:54;17.60;99.90
11559;DHT22;5835;42.930;25.178;2023-06-19T03:36:22;17.50;99.90
11559;DHT22;5835;42.930;25.178;2023-06-19T03:38:52;17.70;99.90
11559;DHT22;5835;42.930;25.178;2023-06-19T03:41:21;17.60;99.90
11559;DHT22;5835;42.930;25.178;2023-06-19T03:43:48;17.60;99.90
11559;DHT22;5835;42.930;25.178;2023-06-19T03:46:16;17.50;99.90
11559;DHT22;5835;42.930;25.178;2023-06-19T03:48:44;17.50;99.90
11559;DHT22;5835;42.930;25.178;2023-06-19T03:51:11;17.50;99.90
11559;DHT22;5835;42.930;25.178;2023-06-19T03:53:39;17.50;99.90
11559;DHT22;5835;42.930;25.178;2023-06-19T03:56:09;17.50;99.90
11559;DHT22;5835;42.930;25.178;2023-06-19T03:58:36;17.60;99.90
11559;DHT22;5835;42.930;25.178;2023-06-19T04:01:04;17.60;99.90
11559;DHT22;5835;42.930;25.178;2023-06-19T04:03:32;17.60;99.90
11559;DHT22;5835;42.930;25.178;2023-06-19T04:05:59;17.70;99.90
11559;DHT22;5835;42.930;25.178;2023-06-19T04:08:27;17.70;99.90
11559;DHT22;5835;42.930;25.178;2023-06-19T04:11:00;18.10;99.90
11559;DHT22;5835;42.930;25.178;2023-06-19T04:13:31;18.80;99.90
11559;DHT22;5835;42.930;25.178;2023-06-19T04:15:59;19.40;99.90
11559;DHT22;5835;42.930;25.178;2023-06-19T04:18:26;19.70;99.90
11559;DHT22;5835;42.930;25.178;2023-06-19T04:20:54;19.40;99.90
11559;DHT22;5835;42.930;25.178;2023-06-19T04:23:22;19.30;99.90
11559;DHT22;5835;42.930;25.178;2023-06-19T04:25:50;19.10;99.90
11559;DHT22;5835;42.930;25.178;2023-06-19T04:28:17;18.80;99.90
11559;DHT22;5835;42.930;25.178;2023-06-19T04:30:47;18.90;99.90
11559;DHT22;5835;42.930;25.178;2023-06-19T04:33:15;19.00;99.90
11559;DHT22;5835;42.930;25.178;2023-06-19T04:35:42;18.90;1.00
11559;DHT22;5835;42.930;25.178;2023-06-19T04:38:10;19.00;29.80
11559;DHT22;5835;42.930;25.178;2023-06-19T04:40:40;19.20;27.30
11559;DHT22;5835;42.930;25.178;2023-06-19T04:43:09;19.50;1.00
11559;DHT22;5835;42.930;25.178;2023-06-19T04:45:36;19.70;1.00
11559;DHT22;5835;42.930;25.178;2023-06-19T04:48:06;19.60;17.20
11559;DHT22;5835;42.930;25.178;2023-06-19T04:50:33;19.40;99.90
11559;DHT22;5835;42.930;25.178;2023-06-19T04:53:01;19.30;99.90
11559;DHT22;5835;42.930;25.178;2023-06-19T04:55:29;19.40;92.40
11559;DHT22;5835;42.930;25.178;2023-06-19T04:57:56;19.50;1.00
11559;DHT22;5835;42.930;25.178;2023-06-19T05:00:25;19.40;99.90
11559;DHT22;5835;42.930;25.178;2023-06-19T05:02:52;19.50;1.00
11559;DHT22;5835;42.930;25.178;2023-06-19T05:05:25;19.40;1.00
11559;DHT22;5835;42.930;25.178;2023-06-19T05:07:53;19.40;1.00
11559;DHT22;5835;42.930;25.178;2023-06-19T05:10:21;19.40;1.00
11559;DHT22;5835;42.930;25.178;2023-06-19T05:12:48;19.60;1.00
11559;DHT22;5835;42.930;25.178;2023-06-19T05:15:16;19.70;99.90
11559;DHT22;5835;42.930;25.178;2023-06-19T05:17:43;19.80;99.90
11559;DHT22;5835;42.930;25.178;2023-06-19T05:20:12;19.80;99.90
11559;DHT22;5835;42.930;25.178;2023-06-19T05:22:42;19.90;99.90
11559;DHT22;5835;42.930;25.178;2023-06-19T05:25:09;19.90;99.90
11559;DHT22;5835;42.930;25.178;2023-06-19T05:27:37;20.00;1.00
11559;DHT22;5835;42.930;25.178;2023-06-19T05:30:06;20.20;1.00
11559;DHT22;5835;42.930;25.178;2023-06-19T05:32:34;20.20;99.90
11559;DHT22;5835;42.930;25.178;2023-06-19T05:35:01;20.20;99.90
11559;DHT22;5835;42.930;25.178;2023-06-19T05:37:29;20.20;99.90
11559;DHT22;5835;42.930;25.178;2023-06-19T05:39:58;20.50;99.90
11559;DHT22;5835;42.930;25.178;2023-06-19T05:42:26;20.80;99.90
11559;DHT22;5835;42.930;25.178;2023-06-19T05:44:53;20.70;99.90
11559;DHT22;5835;42.930;25.178;2023-06-19T05:47:21;20.80;99.90
11559;DHT22;5835;42.930;25.178;2023-06-19T05:49:51;20.90;99.90
11559;DHT22;5835;42.930;25.178;2023-06-19T05:52:19;21.00;96.90
11559;DHT22;5835;42.930;25.178;2023-06-19T05:54:47;21.10;1.00
11559;DHT22;5835;42.930;25.178;2023-06-19T05:57:16;21.40;1.00
11559;DHT22;5835;42.930;25.178;2023-06-19T05:59:46;21.10;99.90
11559;DHT22;5835;42.930;25.178;2023-06-19T06:02:14;21.00;99.90
11559;DHT22;5835;42.930;25.178;2023-06-19T06:04:42;21.20;99.90
11559;DHT22;5835;42.930;25.178;2023-06-19T06:07:09;21.30;99.90
11559;DHT22;5835;42.930;25.178;2023-06-19T06:09:37;21.60;99.90
11559;DHT22;5835;42.930;25.178;2023-06-19T06:12:05;21.50;1.00
11559;DHT22;5835;42.930;25.178;2023-06-19T06:14:35;21.60;99.90
11559;DHT22;5835;42.930;25.178;2023-06-19T06:17:03;21.50;99.90
11559;DHT22;5835;42.930;25.178;2023-06-19T06:19:32;21.40;1.00
11559;DHT22;5835;42.930;25.178;2023-06-19T06:21:59;21.20;1.00
11559;DHT22;5835;42.930;25.178;2023-06-19T06:24:27;21.00;99.90
11559;DHT22;5835;42.930;25.178;2023-06-19T06:26:55;21.30;16.90
11559;DHT22;5835;42.930;25.178;2023-06-19T06:29:24;21.30;99.90
11559;DHT22;5835;42.930;25.178;2023-06-19T06:32:03;21.50;1.00
11559;DHT22;5835;42.930;25.178;2023-06-19T06:34:31;21.60;99.90
11559;DHT22;5835;42.930;25.178;2023-06-19T06:36:59;21.80;1.00
11559;DHT22;5835;42.930;25.178;2023-06-19T06:39:27;21.60;99.90
11559;DHT22;5835;42.930;25.178;2023-06-19T06:41:55;21.80;1.00
11559;DHT22;5835;42.930;25.178;2023-06-19T06:44:22;22.00;1.00
11559;DHT22;5835;42.930;25.178;2023-06-19T06:46:50;21.90;99.90
11559;DHT22;5835;42.930;25.178;2023-06-19T06:49:20;21.70;99.90
11559;DHT22;5835;42.930;25.178;2023-06-19T06:51:48;21.90;99.90
11559;DHT22;5835;42.930;25.178;2023-06-19T06:54:16;22.00;1.00
11559;DHT22;5835;42.930;25.178;2023-06-19T06:56:43;22.00;99.90
11559;DHT22;5835;42.930;25.178;2023-06-19T06:59:13;21.90;99.90
11559;DHT22;5835;42.930;25.178;2023-06-19T07:01:42;22.20;1.00
11559;DHT22;5835;42.930;25.178;2023-06-19T07:04:09;22.20;99.90
11559;DHT22;5835;42.930;25.178;2023-06-19T07:06:38;22.50;99.90
11559;DHT22;5835;42.930;25.178;2023-06-19T07:09:06;22.50;99.90
11559;DHT22;5835;42.930;25.178;2023-06-19T07:11:34;22.60;99.90
11559;DHT22;5835;42.930;25.178;2023-06-19T07:14:02;22.60;99.90
11559;DHT22;5835;42.930;25.178;2023-06-19T07:16:30;22.70;99.90
11559;DHT22;5835;42.930;25.178;2023-06-19T07:18:57;22.60;99.90
11559;DHT22;5835;42.930;25.178;2023-06-19T07:21:28;22.50;99.90
11559;DHT22;5835;42.930;25.178;2023-06-19T07:23:59;22.50;85.80
11559;DHT22;5835;42.930;25.178;2023-06-19T07:26:27;22.70;99.90
11559;DHT22;5835;42.930;25.178;2023-06-19T07:28:55;23.00;99.90
11559;DHT22;5835;42.930;25.178;2023-06-19T07:31:22;22.90;61.80
11559;DHT22;5835;42.930;25.178;2023-06-19T07:33:50;23.10;89.30
11559;DHT22;5835;42.930;25.178;2023-06-19T07:36:18;23.00;19.60
11559;DHT22;5835;42.930;25.178;2023-06-19T07:38:46;23.00;1.10
11559;DHT22;5835;42.930;25.178;2023-06-19T07:41:15;23.10;2.00
11559;DHT22;5835;42.930;25.178;2023-06-19T07:43:43;23.10;1.00
11559;DHT22;5835;42.930;25.178;2023-06-19T07:46:11;23.20;1.00
11559;DHT22;5835;42.930;25.178;2023-06-19T07:48:38;23.00;1.00
11559;DHT22;5835;42.930;25.178;2023-06-19T07:51:07;23.40;1.00
11559;DHT22;5835;42.930;25.178;2023-06-19T07:53:34;23.70;1.00
11559;DHT22;5835;42.930;25.178;2023-06-19T07:56:02;23.60;1.00
11559;DHT22;5835;42.930;25.178;2023-06-19T07:58:31;23.60;1.00
11559;DHT22;5835;42.930;25.178;2023-06-19T08:00:59;23.70;1.00
11559;DHT22;5835;42.930;25.178;2023-06-19T08:03:27;23.30;1.00
11559;DHT22;5835;42.930;25.178;2023-06-19T08:05:56;23.40;1.00
11559;DHT22;5835;42.930;25.178;2023-06-19T08:08:23;23.10;1.00
11559;DHT22;5835;42.930;25.178;2023-06-19T08:10:51;23.40;1.00
11559;DHT22;5835;42.930;25.178;2023-06-19T08:13:19;23.40;1.00
11559;DHT22;5835;42.930;25.178;2023-06-19T08:15:48;23.40;1.00
11559;DHT22;5835;42.930;25.178;2023-06-19T08:18:16;23.60;1.00
11559;DHT22;5835;42.930;25.178;2023-06-19T08:20:44;23.60;1.00
11559;DHT22;5835;42.930;25.178;2023-06-19T08:23:12;23.60;1.00
11559;DHT22;5835;42.930;25.178;2023-06-19T08:25:39;23.90;1.00
11559;DHT22;5835;42.930;25.178;2023-06-19T08:28:08;24.00;1.00
11559;DHT22;5835;42.930;25.178;2023-06-19T08:30:35;24.20;1.00
11559;DHT22;5835;42.930;25.178;2023-06-19T08:33:05;23.90;1.00
11559;DHT22;5835;42.930;25.178;2023-06-19T08:35:33;23.80;1.00
11559;DHT22;5835;42.930;25.178;2023-06-19T08:38:00;23.80;1.00
11559;DHT22;5835;42.930;25.178;2023-06-19T08:40:28;24.30;1.00
11559;DHT22;5835;42.930;25.178;2023-06-19T08:42:56;24.20;1.00
11559;DHT22;5835;42.930;25.178;2023-06-19T08:45:25;24.30;1.00
11559;DHT22;5835;42.930;25.178;2023-06-19T08:47:58;24.60;1.00
11559;DHT22;5835;42.930;25.178;2023-06-19T08:50:27;24.50;1.00
11559;DHT22;5835;42.930;25.178;2023-06-19T08:52:56;24.40;1.00
11559;DHT22;5835;42.930;25.178;2023-06-19T08:55:24;24.30;1.00
11559;DHT22;5835;42.930;25.178;2023-06-19T08:57:52;24.30;1.00
11559;DHT22;5835;42.930;25.178;2023-06-19T09:00:24;24.30;1.00
11559;DHT22;5835;42.930;25.178;2023-06-19T09:02:57;24.50;1.00
11559;DHT22;5835;42.930;25.178;2023-06-19T09:05:27;25.00;1.00
11559;DHT22;5835;42.930;25.178;2023-06-19T09:07:56;24.50;1.00
11559;DHT22;5835;42.930;25.178;2023-06-19T09:10:25;24.40;1.00
11559;DHT22;5835;42.930;25.178;2023-06-19T09:12:59;24.40;1.00
11559;DHT22;5835;42.930;25.178;2023-06-19T09:15:28;24.00;1.00
11559;DHT22;5835;42.930;25.178;2023-06-19T09:18:04;24.20;1.00
11559;DHT22;5835;42.930;25.178;2023-06-19T09:20:35;24.50;1.00
11559;DHT22;5835;42.930;25.178;2023-06-19T09:23:04;24.90;1.00
11559;DHT22;5835;42.930;25.178;2023-06-19T09:25:42;24.90;1.00
11559;DHT22;5835;42.930;25.178;2023-06-19T09:28:17;24.50;1.00
11559;DHT22;5835;42.930;25.178;2023-06-19T09:30:55;24.60;1.00
11559;DHT22;5835;42.930;25.178;2023-06-19T09:33:26;25.10;1.00
11559;DHT22;5835;42.930;25.178;2023-06-19T09:35:56;25.60;1.00
11559;DHT22;5835;42.930;25.178;2023-06-19T09:38:26;26.00;1.00
11559;DHT22;5835;42.930;25.178;2023-06-19T09:40:55;25.30;1.00
11559;DHT22;5835;42.930;25.178;2023-06-19T09:43:24;26.00;1.00
11559;DHT22;5835;42.930;25.178;2023-06-19T09:45:55;25.70;1.00
11559;DHT22;5835;42.930;25.178;2023-06-19T09:48:27;25.80;1.00
11559;DHT22;5835;42.930;25.178;2023-06-19T09:51:03;25.50;1.00
11559;DHT22;5835;42.930;25.178;2023-06-19T09:53:32;26.10;1.00
11559;DHT22;5835;42.930;25.178;2023-06-19T09:56:02;26.60;1.00
11559;DHT22;5835;42.930;25.178;2023-06-19T09:58:30;26.80;1.00
11559;DHT22;5835;42.930;25.178;2023-06-19T10:00:59;27.00;1.00
11559;DHT22;5835;42.930;25.178;2023-06-19T10:03:31;26.70;1.00
11559;DHT22;5835;42.930;25.178;2023-06-19T10:06:02;26.30;1.00
11559;DHT22;5835;42.930;25.178;2023-06-19T10:08:31;26.00;1.00
11559;DHT22;5835;42.930;25.178;2023-06-19T10:11:00;26.20;1.00
11559;DHT22;5835;42.930;25.178;2023-06-19T10:13:32;25.90;1.00
11559;DHT22;5835;42.930;25.178;2023-06-19T10:16:01;26.30;1.00
11559;DHT22;5835;42.930;25.178;2023-06-19T10:18:29;26.30;1.00
11559;DHT22;5835;42.930;25.178;2023-06-19T10:21:00;27.20;1.00
11559;DHT22;5835;42.930;25.178;2023-06-19T10:23:28;26.70;1.00
11559;DHT22;5835;42.930;25.178;2023-06-19T10:25:57;26.20;1.00
11559;DHT22;5835;42.930;25.178;2023-06-19T10:28:27;25.80;1.00
11559;DHT22;5835;42.930;25.178;2023-06-19T10:30:57;25.70;1.00
11559;DHT22;5835;42.930;25.178;2023-06-19T10:33:27;25.70;1.00
11559;DHT22;5835;42.930;25.178;2023-06-19T10:35:55;26.20;1.00
11559;DHT22;5835;42.930;25.178;2023-06-19T10:38:25;26.50;1.00
11559;DHT22;5835;42.930;25.178;2023-06-19T10:40:53;25.90;1.00
11559;DHT22;5835;42.930;25.178;2023-06-19T10:43:21;25.60;1.00
11559;DHT22;5835;42.930;25.178;2023-06-19T10:45:51;25.80;1.00
11559;DHT22;5835;42.930;25.178;2023-06-19T10:48:19;25.80;1.00
11559;DHT22;5835;42.930;25.178;2023-06-19T10:50:48;25.50;1.00
11559;DHT22;5835;42.930;25.178;2023-06-19T10:53:25;25.60;1.00
11559;DHT22;5835;42.930;25.178;2023-06-19T10:55:56;26.50;1.00
11559;DHT22;5835;42.930;25.178;2023-06-19T10:58:24;26.40;1.00
11559;DHT22;5835;42.930;25.178;2023-06-19T11:00:53;25.60;1.00
11559;DHT22;5835;42.930;25.178;2023-06-19T11:03:21;24.70;1.00
11559;DHT22;5835;42.930;25.178;2023-06-19T11:05:49;24.50;1.00
11559;DHT22;5835;42.930;25.178;2023-06-19T11:08:21;24.50;1.00
11559;DHT22;5835;42.930;25.178;2023-06-19T11:10:51;24.90;1.00
11559;DHT22;5835;42.930;25.178;2023-06-19T11:13:20;25.30;1.00
11559;DHT22;5835;42.930;25.178;2023-06-19T11:15:49;26.30;1.00
11559;DHT22;5835;42.930;25.178;2023-06-19T11:18:19;25.70;1.00
11559;DHT22;5835;42.930;25.178;2023-06-19T11:20:48;25.60;1.00
11559;DHT22;5835;42.930;25.178;2023-06-19T11:23:24;24.90;1.00
11559;DHT22;5835;42.930;25.178;2023-06-19T11:25:53;25.10;1.00
11559;DHT22;5835;42.930;25.178;2023-06-19T11:28:22;25.20;1.00
11559;DHT22;5835;42.930;25.178;2023-06-19T11:30:58;25.80;1.00
11559;DHT22;5835;42.930;25.178;2023-06-19T11:33:26;25.40;1.00
11559;DHT22;5835;42.930;25.178;2023-06-19T11:35:58;25.20;1.00
11559;DHT22;5835;42.930;25.178;2023-06-19T11:38:27;24.90;1.00
11559;DHT22;5835;42.930;25.178;2023-06-19T11:40:57;24.60;1.00
11559;DHT22;5835;42.930;25.178;2023-06-19T11:43:25;24.40;1.00
11559;DHT22;5835;42.930;25.178;2023-06-19T11:45:53;24.50;1.00
11559;DHT22;5835;42.930;25.178;2023-06-19T11:48:22;25.20;1.00
11559;DHT22;5835;42.930;25.178;2023-06-19T11:50:50;25.40;1.00
11559;DHT22;5835;42.930;25.178;2023-06-19T11:53:19;25.70;1.00
11559;DHT22;5835;42.930;25.178;2023-06-19T11:55:47;25.60;1.00
11559;DHT22;5835;42.930;25.178;2023-06-19T11:58:17;25.60;1.00
11559;DHT22;5835;42.930;25.178;2023-06-19T12:00:46;25.60;1.00
11559;DHT22;5835;42.930;25.178;2023-06-19T12:03:15;25.40;1.00
11559;DHT22;5835;42.930;25.178;2023-06-19T12:05:43;25.00;1.00
11559;DHT22;5835;42.930;25.178;2023-06-19T12:08:11;25.40;1.00
11559;DHT22;5835;42.930;25.178;2023-06-19T12:10:38;25.80;1.00
11559;DHT22;5835;42.930;25.178;2023-06-19T12:13:06;25.80;1.00
11559;DHT22;5835;42.930;25.178;2023-06-19T12:15:35;26.20;1.00
11559;DHT22;5835;42.930;25.178;2023-06-19T12:18:03;26.40;1.00
11559;DHT22;5835;42.930;25.178;2023-06-19T12:20:33;26.50;1.00
11559;DHT22;5835;42.930;25.178;2023-06-19T12:23:00;26.40;1.00
11559;DHT22;5835;42.930;25.178;2023-06-19T12:25:28;26.40;1.00
11559;DHT22;5835;42.930;25.178;2023-06-19T12:27:56;26.20;1.00
11559;DHT22;5835;42.930;25.178;2023-06-19T12:30:24;26.10;1.00
11559;DHT22;5835;42.930;25.178;2023-06-19T12:32:54;26.30;1.00
11559;DHT22;5835;42.930;25.178;2023-06-19T12:35:22;26.50;1.00
11559;DHT22;5835;42.930;25.178;2023-06-19T12:37:49;26.80;1.00
11559;DHT22;5835;42.930;25.178;2023-06-19T12:40:17;26.90;1.00
11559;DHT22;5835;42.930;25.178;2023-06-19T12:42:45;27.20;1.00
11559;DHT22;5835;42.930;25.178;2023-06-19T12:45:15;26.80;1.00
11559;DHT22;5835;42.930;25.178;2023-06-19T12:47:43;27.20;1.00
11559;DHT22;5835;42.930;25.178;2023-06-19T12:50:14;27.00;1.00
11559;DHT22;5835;42.930;25.178;2023-06-19T12:52:42;27.30;1.00
11559;DHT22;5835;42.930;25.178;2023-06-19T12:55:09;27.40;1.00
11559;DHT22;5835;42.930;25.178;2023-06-19T12:57:38;27.20;1.00
11559;DHT22;5835;42.930;25.178;2023-06-19T13:00:09;27.40;1.00
11559;DHT22;5835;42.930;25.178;2023-06-19T13:02:38;27.20;1.00
11559;DHT22;5835;42.930;25.178;2023-06-19T13:05:07;27.50;1.00
11559;DHT22;5835;42.930;25.178;2023-06-19T13:07:36;27.00;1.00
11559;DHT22;5835;42.930;25.178;2023-06-19T13:10:05;27.50;1.00
11559;DHT22;5835;42.930;25.178;2023-06-19T13:12:33;27.60;1.00
11559;DHT22;5835;42.930;25.178;2023-06-19T13:15:00;27.20;1.00
11559;DHT22;5835;42.930;25.178;2023-06-19T13:17:28;27.30;1.00
11559;DHT22;5835;42.930;25.178;2023-06-19T13:19:57;27.20;1.00
11559;DHT22;5835;42.930;25.178;2023-06-19T13:22:25;27.30;1.00
11559;DHT22;5835;42.930;25.178;2023-06-19T13:24:55;27.70;1.00
11559;DHT22;5835;42.930;25.178;2023-06-19T13:27:22;27.90;1.00
11559;DHT22;5835;42.930;25.178;2023-06-19T13:29:50;27.70;1.00
11559;DHT22;5835;42.930;25.178;2023-06-19T13:32:18;27.30;1.00
11559;DHT22;5835;42.930;25.178;2023-06-19T13:34:46;28.20;1.00
11559;DHT22;5835;42.930;25.178;2023-06-19T13:37:13;27.80;1.00
11559;DHT22;5835;42.930;25.178;2023-06-19T13:39:42;27.90;1.00
11559;DHT22;5835;42.930;25.178;2023-06-19T13:42:11;28.00;1.00
11559;DHT22;5835;42.930;25.178;2023-06-19T13:44:39;27.60;1.00
11559;DHT22;5835;42.930;25.178;2023-06-19T13:47:07;27.40;1.00
11559;DHT22;5835;42.930;25.178;2023-06-19T13:49:35;27.50;1.00
11559;DHT22;5835;42.930;25.178;2023-06-19T13:52:03;28.40;1.00
11559;DHT22;5835;42.930;25.178;2023-06-19T13:54:31;28.70;1.00
11559;DHT22;5835;42.930;25.178;2023-06-19T13:56:59;28.00;1.00
11559;DHT22;5835;42.930;25.178;2023-06-19T13:59:29;28.00;1.00
11559;DHT22;5835;42.930;25.178;2023-06-19T14:01:56;27.90;1.00
11559;DHT22;5835;42.930;25.178;2023-06-19T14:04:31;27.40;1.00
11559;DHT22;5835;42.930;25.178;2023-06-19T14:07:22;26.70;1.00
11559;DHT22;5835;42.930;25.178;2023-06-19T14:09:51;27.10;1.00
11559;DHT22;5835;42.930;25.178;2023-06-19T14:12:20;26.50;1.00
11559;DHT22;5835;42.930;25.178;2023-06-19T14:14:50;27.00;1.00
11559;DHT22;5835;42.930;25.178;2023-06-19T14:17:18;26.50;1.00
11559;DHT22;5835;42.930;25.178;2023-06-19T14:19:46;26.70;1.00
11559;DHT22;5835;42.930;25.178;2023-06-19T14:22:14;26.70;1.00
11559;DHT22;5835;42.930;25.178;2023-06-19T14:24:41;26.60;1.00
11559;DHT22;5835;42.930;25.178;2023-06-19T14:27:09;26.60;1.00
11559;DHT22;5835;42.930;25.178;2023-06-19T14:29:38;26.40;1.00
11559;DHT22;5835;42.930;25.178;2023-06-19T14:32:08;26.90;1.00
11559;DHT22;5835;42.930;25.178;2023-06-19T14:34:36;26.40;1.00
11559;DHT22;5835;42.930;25.178;2023-06-19T14:37:04;26.30;1.00
11559;DHT22;5835;42.930;25.178;2023-06-19T14:39:34;26.20;1.00
11559;DHT22;5835;42.930;25.178;2023-06-19T14:42:02;26.30;1.00
11559;DHT22;5835;42.930;25.178;2023-06-19T14:44:30;26.60;1.00
11559;DHT22;5835;42.930;25.178;2023-06-19T14:46:58;26.10;1.00
11559;DHT22;5835;42.930;25.178;2023-06-19T14:49:27;25.70;1.00
11559;DHT22;5835;42.930;25.178;2023-06-19T14:51:55;25.60;1.00
11559;DHT22;5835;42.930;25.178;2023-06-19T14:54:23;25.60;1.00
11559;DHT22;5835;42.930;25.178;2023-06-19T14:56:51;25.70;1.00
11559;DHT22;5835;42.930;25.178;2023-06-19T14:59:19;26.20;1.00
11559;DHT22;5835;42.930;25.178;2023-06-19T15:01:47;26.70;1.00
11559;DHT22;5835;42.930;25.178;2023-06-19T15:04:15;26.60;1.00
11559;DHT22;5835;42.930;25.178;2023-06-19T15:06:45;26.60;1.00
11559;DHT22;5835;42.930;25.178;2023-06-19T15:09:13;26.90;1.00
11559;DHT22;5835;42.930;25.178;2023-06-19T15:11:40;26.80;1.00
11559;DHT22;5835;42.930;25.178;2023-06-19T15:14:08;26.80;1.00
11559;DHT22;5835;42.930;25.178;2023-06-19T15:16:36;26.20;1.00
11559;DHT22;5835;42.930;25.178;2023-06-19T15:19:04;26.80;1.00
11559;DHT22;5835;42.930;25.178;2023-06-19T15:21:32;26.50;1.00
11559;DHT22;5835;42.930;25.178;2023-06-19T15:24:02;26.70;1.00
11559;DHT22;5835;42.930;25.178;2023-06-19T15:26:30;26.60;1.00
11559;DHT22;5835;42.930;25.178;2023-06-19T15:28:57;26.60;1.00
11559;DHT22;5835;42.930;25.178;2023-06-19T15:31:26;26.60;1.00
11559;DHT22;5835;42.930;25.178;2023-06-19T15:33:54;26.70;1.00
11559;DHT22;5835;42.930;25.178;2023-06-19T15:36:22;26.30;1.00
11559;DHT22;5835;42.930;25.178;2023-06-19T15:38:50;27.20;1.00
11559;DHT22;5835;42.930;25.178;2023-06-19T15:41:19;27.10;1.00
11559;DHT22;5835;42.930;25.178;2023-06-19T15:43:47;27.20;1.00
11559;DHT22;5835;42.930;25.178;2023-06-19T15:46:19;27.50;1.00
11559;DHT22;5835;42.930;25.178;2023-06-19T15:48:46;27.80;1.00